Aérodrome :
LOGIN :

S'inscrire | Disclaimer

   EN    FR    IT 

 










Légende :    VFR   VFR Marginal   IFR   IFR Intensif   IFR Très Intensif
Visi : 
Plafond : 
>= 8 km
>= 3000ft
5 à 8 km
1000 à 3000 ft
1500m à 5 km
500 à 1000 ft
800 à 1500m
200 à 500 ft
< 800m
< 200 ft
Symboles :   Orages  Brouillard  Fortes neiges  Fortes précipitations  Vent > 20 kt
SIGMETs :   Divers  Orages  Givrage  Turbulence  Onde Orograph.  Cendres Volcan.






- Altitude de l'aérodrome : 277 ft
- Code IATA : JER


EGJJ - Jersey

DERNIER METAR :
  • 271720Z 31011KT 9999 FEW036 07/00 Q1013

METARs EXPIRÉS :
  • 271650Z 31011KT 9999 FEW035 08/00 Q1012
  • 271620Z 31014KT 280V340 9999 FEW035 08/00 Q1012
  • 271550Z 31014KT 9999 FEW034 09/01 Q1011
  • 271520Z 30016G26KT 9999 SCT030 09/02 Q1010
  • 271450Z 31015KT 280V340 9999 FEW025 08/02 Q1010

TAF TAF EGJJ
Valide du 27 à 15h jusqu'au 28 à 00h UTC


271356Z 2715/2800 32020KT 9999 SCT023
BECMG 2716/2718 32010KT
ATIS : +44 1534 498 073



MET'MAP, la Météo Aéronautique d'un coup d'oeil ! - Copyright ORBIFLY Décembre 2007 - Disclaimer

ORBIFLY MET'MAP TEAM :

Programmation & Développement : Alexandra Zaïnal
Sur une idée originale de : Baudouin d'Aumeries
Assistance à la programmation : Marc-Olivier Méhu
Soutien technique & logistique : Manuel Goepfert

Contact : metmap@orbifly.com




SOURCES & CREDITS :

   NOAA